createdAt,value
2018-05-25T00:01:27.088Z,100.00
2018-05-25T00:03:55.293Z,100.00
2018-05-25T00:06:23.028Z,100.00
2018-05-25T00:08:51.002Z,100.00
2018-05-25T00:11:18.483Z,100.00
2018-05-25T00:13:45.975Z,100.00
2018-05-25T00:16:13.439Z,100.00
2018-05-25T00:18:40.943Z,100.00
2018-05-25T00:21:08.413Z,100.00
2018-05-25T00:23:35.891Z,100.00
2018-05-25T00:26:03.377Z,100.00
2018-05-25T00:28:30.840Z,100.00
2018-05-25T00:30:58.332Z,100.00
2018-05-25T00:33:25.811Z,100.00
2018-05-25T00:35:53.285Z,100.00
2018-05-25T00:38:20.780Z,100.00
2018-05-25T00:40:48.250Z,100.00
2018-05-25T00:43:15.746Z,100.00
2018-05-25T00:45:43.216Z,100.00
2018-05-25T00:48:10.688Z,100.00
2018-05-25T00:50:38.185Z,100.00
2018-05-25T00:53:05.656Z,100.00
2018-05-25T00:55:39.923Z,100.00
2018-05-25T00:58:07.396Z,100.00
2018-05-25T01:00:34.880Z,100.00
2018-05-25T01:03:02.345Z,100.00
2018-05-25T01:05:29.817Z,100.00
2018-05-25T01:07:57.299Z,100.00
2018-05-25T01:10:24.769Z,100.00
2018-05-25T01:12:52.480Z,100.00
2018-05-25T01:15:19.955Z,100.00
2018-05-25T01:17:47.448Z,100.00
2018-05-25T01:20:15.070Z,100.00
2018-05-25T01:22:42.541Z,100.00
2018-05-25T01:25:10.028Z,100.00
2018-05-25T01:27:37.501Z,100.00
2018-05-25T01:30:04.990Z,100.00
2018-05-25T01:32:32.455Z,100.00
2018-05-25T01:34:59.929Z,100.00
2018-05-25T01:37:27.428Z,100.00
2018-05-25T01:39:54.893Z,100.00
2018-05-25T01:42:22.383Z,100.00
2018-05-25T01:44:49.843Z,100.00
2018-05-25T01:47:17.317Z,100.00
2018-05-25T01:49:45.445Z,100.00
2018-05-25T01:52:12.917Z,100.00
2018-05-25T01:54:40.406Z,100.00
2018-05-25T01:57:07.877Z,100.00
2018-05-25T01:59:35.380Z,100.00
2018-05-25T02:02:02.855Z,100.00
2018-05-25T02:04:30.331Z,100.00
2018-05-25T02:06:57.833Z,100.00
2018-05-25T02:09:25.361Z,100.00
2018-05-25T02:11:52.864Z,100.00
2018-05-25T02:14:20.335Z,100.00
2018-05-25T02:16:48.698Z,100.00
2018-05-25T02:19:16.188Z,100.00
2018-05-25T02:21:43.663Z,100.00
2018-05-25T02:24:11.167Z,100.00
2018-05-25T02:26:38.648Z,100.00
2018-05-25T02:29:06.112Z,100.00
2018-05-25T02:31:33.604Z,100.00
2018-05-25T02:34:01.076Z,100.00
2018-05-25T02:36:28.584Z,100.00
2018-05-25T02:38:56.055Z,100.00
2018-05-25T02:41:23.529Z,100.00
2018-05-25T02:43:52.004Z,100.00
2018-05-25T02:46:19.478Z,100.00
2018-05-25T02:48:46.983Z,100.00
2018-05-25T02:51:14.473Z,100.00
2018-05-25T02:53:41.932Z,100.00
2018-05-25T02:56:09.424Z,100.00
2018-05-25T02:58:36.897Z,100.00
2018-05-25T03:01:04.405Z,100.00
2018-05-25T03:03:31.876Z,100.00
2018-05-25T03:05:59.334Z,100.00
2018-05-25T03:08:26.821Z,100.00
2018-05-25T03:10:54.291Z,100.00
2018-05-25T03:13:21.790Z,100.00
2018-05-25T03:15:49.264Z,100.00
2018-05-25T03:18:16.730Z,100.00
2018-05-25T03:20:44.451Z,100.00
2018-05-25T03:23:11.919Z,100.00
2018-05-25T03:25:39.461Z,100.00
2018-05-25T03:28:07.124Z,100.00
2018-05-25T03:30:34.595Z,100.00
2018-05-25T03:33:02.082Z,100.00
2018-05-25T03:35:29.551Z,100.00
2018-05-25T03:37:57.041Z,100.00
2018-05-25T03:40:24.511Z,100.00
2018-05-25T03:42:52.013Z,100.00
2018-05-25T03:45:19.484Z,100.00
2018-05-25T03:47:46.956Z,100.00
2018-05-25T03:50:14.451Z,100.00
2018-05-25T03:52:41.929Z,100.00
2018-05-25T03:55:09.412Z,100.00
2018-05-25T03:57:36.896Z,100.00
2018-05-25T04:00:16.212Z,100.00
2018-05-25T04:02:43.687Z,100.00
2018-05-25T04:05:11.175Z,100.00
2018-05-25T04:07:38.664Z,100.00
2018-05-25T04:10:06.155Z,100.00
2018-05-25T04:12:33.625Z,100.00
2018-05-25T04:15:01.092Z,100.00
2018-05-25T04:17:29.118Z,100.00
2018-05-25T04:19:57.183Z,100.00
2018-05-25T04:22:24.663Z,100.00
2018-05-25T04:24:52.132Z,100.00
2018-05-25T04:27:19.688Z,100.00
2018-05-25T04:29:47.184Z,100.00
2018-05-25T04:32:14.658Z,100.00
2018-05-25T04:34:42.148Z,100.00
2018-05-25T04:37:09.612Z,100.00
2018-05-25T04:39:37.084Z,100.00
2018-05-25T04:42:04.569Z,100.00
2018-05-25T04:44:32.047Z,100.00
2018-05-25T04:46:59.545Z,100.00
2018-05-25T04:49:27.052Z,100.00
2018-05-25T04:51:54.550Z,100.00
2018-05-25T04:54:22.024Z,100.00
2018-05-25T04:56:49.500Z,100.00
2018-05-25T04:59:17.013Z,100.00
2018-05-25T05:01:44.482Z,100.00
2018-05-25T05:04:11.965Z,100.00
2018-05-25T05:06:39.436Z,100.00
2018-05-25T05:09:06.933Z,100.00
2018-05-25T05:11:34.406Z,100.00
2018-05-25T05:14:01.898Z,100.00
2018-05-25T05:16:29.388Z,100.00
2018-05-25T05:18:56.863Z,100.00
2018-05-25T05:21:24.442Z,100.00
2018-05-25T05:23:51.907Z,100.00
2018-05-25T05:26:19.376Z,100.00
2018-05-25T05:28:46.852Z,100.00
2018-05-25T05:31:14.325Z,100.00
2018-05-25T05:33:41.994Z,100.00
2018-05-25T05:36:09.427Z,100.00
2018-05-25T05:38:36.895Z,100.00
2018-05-25T05:41:04.391Z,100.00
2018-05-25T05:43:31.863Z,100.00
2018-05-25T05:45:59.363Z,100.00
2018-05-25T05:48:26.842Z,100.00
2018-05-25T05:50:54.374Z,100.00
2018-05-25T05:53:21.821Z,100.00
2018-05-25T05:55:49.313Z,100.00
2018-05-25T05:58:17.069Z,100.00
2018-05-25T06:00:44.544Z,100.00
2018-05-25T06:03:12.061Z,100.00
2018-05-25T06:05:39.540Z,100.00
2018-05-25T06:08:07.039Z,100.00
2018-05-25T06:10:34.537Z,100.00
2018-05-25T06:13:02.008Z,100.00
2018-05-25T06:15:29.568Z,100.00
2018-05-25T06:17:57.029Z,100.00
2018-05-25T06:20:24.492Z,100.00
2018-05-25T06:22:51.976Z,100.00
2018-05-25T06:25:20.514Z,100.00
2018-05-25T06:27:48.010Z,100.00
2018-05-25T06:30:15.481Z,100.00
2018-05-25T06:32:42.944Z,100.00
2018-05-25T06:35:10.440Z,100.00
2018-05-25T06:37:37.907Z,100.00
2018-05-25T06:40:05.828Z,100.00
2018-05-25T06:42:33.299Z,100.00
2018-05-25T06:45:00.773Z,100.00
2018-05-25T06:47:28.264Z,100.00
2018-05-25T06:49:55.732Z,100.00
2018-05-25T06:52:23.925Z,100.00
2018-05-25T06:54:51.391Z,100.00
2018-05-25T06:57:18.864Z,100.00
2018-05-25T06:59:46.347Z,100.00
2018-05-25T07:02:13.814Z,100.00
2018-05-25T07:04:41.304Z,100.00
2018-05-25T07:07:08.768Z,100.00
2018-05-25T07:09:36.247Z,100.00
2018-05-25T07:12:03.727Z,100.00
2018-05-25T07:14:31.196Z,100.00
2018-05-25T07:16:58.699Z,100.00
2018-05-25T07:19:26.160Z,100.00
2018-05-25T07:21:53.952Z,100.00
2018-05-25T07:24:21.436Z,100.00
2018-05-25T07:26:48.951Z,100.00
2018-05-25T07:29:16.407Z,100.00
2018-05-25T07:31:43.875Z,100.00
2018-05-25T07:34:11.350Z,100.00
2018-05-25T07:36:38.850Z,100.00
2018-05-25T07:39:06.316Z,99.13
2018-05-25T07:41:33.816Z,96.79
2018-05-25T07:44:01.284Z,99.66
2018-05-25T07:46:28.742Z,99.11
2018-05-25T07:48:56.248Z,100.00
2018-05-25T07:51:23.722Z,100.00
2018-05-25T07:53:51.217Z,100.00
2018-05-25T07:56:18.689Z,100.00
2018-05-25T07:58:46.164Z,100.00
2018-05-25T08:01:13.645Z,100.00
2018-05-25T08:03:41.115Z,100.00
2018-05-25T08:06:08.607Z,100.00
2018-05-25T08:08:36.080Z,100.00
2018-05-25T08:11:03.595Z,99.65
2018-05-25T08:13:31.077Z,96.65
2018-05-25T08:15:58.537Z,96.53
2018-05-25T08:18:26.020Z,97.17
2018-05-25T08:20:53.483Z,94.23
2018-05-25T08:23:20.958Z,95.37
2018-05-25T08:25:48.419Z,94.07
2018-05-25T08:28:15.901Z,92.19
2018-05-25T08:30:43.375Z,86.95
2018-05-25T08:33:10.846Z,90.60
2018-05-25T08:35:38.340Z,96.03
2018-05-25T08:38:05.809Z,90.24
2018-05-25T08:40:33.284Z,93.16
2018-05-25T08:43:00.751Z,93.10
2018-05-25T08:45:28.235Z,90.85
2018-05-25T08:47:55.701Z,92.36
2018-05-25T08:50:23.172Z,92.27
2018-05-25T08:52:50.663Z,93.21
2018-05-25T08:55:18.125Z,94.25
2018-05-25T08:57:45.615Z,90.69
2018-05-25T09:00:13.075Z,88.43
2018-05-25T09:02:40.543Z,86.94
2018-05-25T09:05:08.021Z,87.94
2018-05-25T09:07:35.496Z,88.15
2018-05-25T09:10:02.995Z,85.11
2018-05-25T09:12:30.467Z,85.29
2018-05-25T09:14:57.927Z,86.13
2018-05-25T09:17:25.418Z,80.30
2018-05-25T09:19:52.884Z,81.15
2018-05-25T09:22:20.620Z,80.13
2018-05-25T09:24:48.096Z,72.37
2018-05-25T09:27:15.580Z,74.75
2018-05-25T09:29:43.897Z,72.94
2018-05-25T09:32:11.364Z,79.34
2018-05-25T09:34:39.181Z,77.58
2018-05-25T09:37:06.651Z,76.69
2018-05-25T09:39:34.134Z,82.82
2018-05-25T09:42:01.616Z,83.58
2018-05-25T09:44:29.083Z,81.03
2018-05-25T09:46:56.576Z,77.15
2018-05-25T09:49:24.048Z,75.61
2018-05-25T09:51:51.513Z,76.43
2018-05-25T09:54:19.004Z,73.12
2018-05-25T09:56:59.014Z,72.58
2018-05-25T09:59:26.494Z,76.04
2018-05-25T10:01:53.976Z,75.43
2018-05-25T10:04:21.452Z,71.18
2018-05-25T10:06:48.984Z,71.37
2018-05-25T10:09:16.456Z,69.44
2018-05-25T10:11:44.283Z,68.48
2018-05-25T10:14:11.758Z,69.17
2018-05-25T10:16:39.224Z,70.16
2018-05-25T10:19:06.728Z,67.11
2018-05-25T10:21:34.207Z,66.94
2018-05-25T10:24:01.690Z,74.07
2018-05-25T10:26:29.165Z,68.67
2018-05-25T10:28:56.627Z,71.17
2018-05-25T10:31:24.116Z,71.12
2018-05-25T10:33:52.386Z,74.76
2018-05-25T10:36:19.881Z,76.36
2018-05-25T10:38:47.355Z,75.02
2018-05-25T10:41:14.840Z,74.34
2018-05-25T10:43:42.321Z,74.40
2018-05-25T10:46:09.791Z,77.96
2018-05-25T10:48:37.324Z,75.62
2018-05-25T10:51:04.771Z,73.67
2018-05-25T10:53:32.251Z,69.71
2018-05-25T10:55:59.785Z,70.39
2018-05-25T10:58:27.196Z,73.40
2018-05-25T11:00:54.679Z,70.13
2018-05-25T11:03:22.148Z,70.18
2018-05-25T11:05:49.943Z,68.99
2018-05-25T11:08:17.405Z,73.10
2018-05-25T11:10:44.877Z,71.74
2018-05-25T11:13:12.379Z,72.99
2018-05-25T11:15:39.841Z,76.66
2018-05-25T11:18:07.316Z,75.52
2018-05-25T11:20:34.779Z,78.24
2018-05-25T11:23:02.242Z,82.73
2018-05-25T11:25:29.721Z,84.08
2018-05-25T11:27:57.214Z,90.20
2018-05-25T11:30:24.707Z,91.47
2018-05-25T11:32:52.172Z,92.14
2018-05-25T11:35:19.641Z,93.53
2018-05-25T11:37:47.122Z,98.43
2018-05-25T11:40:14.592Z,100.00
2018-05-25T11:42:42.459Z,100.00
2018-05-25T11:45:09.945Z,100.00
2018-05-25T11:47:37.421Z,100.00
2018-05-25T11:50:04.920Z,100.00
2018-05-25T11:52:32.408Z,100.00
2018-05-25T11:54:59.896Z,100.00
2018-05-25T11:57:27.372Z,100.00
2018-05-25T11:59:54.830Z,100.00
2018-05-25T12:02:22.317Z,100.00
2018-05-25T12:04:49.791Z,100.00
2018-05-25T12:07:17.287Z,100.00
2018-05-25T12:09:44.758Z,100.00
2018-05-25T12:12:12.236Z,100.00
2018-05-25T12:14:39.704Z,100.00
2018-05-25T12:17:07.187Z,100.00
2018-05-25T12:19:34.679Z,100.00
2018-05-25T12:22:02.162Z,100.00
2018-05-25T12:24:29.648Z,100.00
2018-05-25T12:26:58.029Z,100.00
2018-05-25T12:29:25.528Z,100.00
2018-05-25T12:31:53.006Z,100.00
2018-05-25T12:34:20.471Z,100.00
2018-05-25T12:36:47.968Z,100.00
2018-05-25T12:39:15.451Z,100.00
2018-05-25T12:41:42.949Z,100.00
2018-05-25T12:44:10.416Z,100.00
2018-05-25T12:46:37.898Z,100.00
2018-05-25T12:49:05.388Z,100.00
2018-05-25T12:51:32.853Z,100.00
2018-05-25T12:54:00.344Z,100.00
2018-05-25T12:56:27.819Z,100.00
2018-05-25T12:58:55.294Z,100.00
2018-05-25T13:01:22.772Z,100.00
2018-05-25T13:03:50.249Z,100.00
2018-05-25T13:06:17.747Z,100.00
2018-05-25T13:08:45.223Z,100.00
2018-05-25T13:11:12.732Z,100.00
2018-05-25T13:13:40.201Z,100.00
2018-05-25T13:16:07.677Z,100.00
2018-05-25T13:18:35.183Z,100.00
2018-05-25T13:21:02.653Z,100.00
2018-05-25T13:23:30.567Z,100.00
2018-05-25T13:25:58.045Z,100.00
2018-05-25T13:28:25.516Z,100.00
2018-05-25T13:30:53.001Z,100.00
2018-05-25T13:33:20.463Z,100.00
2018-05-25T13:35:47.970Z,100.00
2018-05-25T13:38:15.458Z,100.00
2018-05-25T13:40:42.936Z,100.00
2018-05-25T13:43:10.445Z,100.00
2018-05-25T13:45:37.916Z,100.00
2018-05-25T13:48:05.425Z,100.00
2018-05-25T13:50:32.890Z,100.00
2018-05-25T13:53:00.366Z,100.00
2018-05-25T13:55:27.855Z,100.00
2018-05-25T13:57:55.330Z,100.00
2018-05-25T14:00:22.825Z,100.00
2018-05-25T14:02:50.295Z,100.00
2018-05-25T14:05:17.764Z,100.00
2018-05-25T14:07:45.259Z,100.00
2018-05-25T14:10:12.740Z,100.00
2018-05-25T14:12:40.237Z,100.00
2018-05-25T14:15:07.709Z,100.00
2018-05-25T14:17:35.187Z,100.00
2018-05-25T14:20:02.667Z,100.00
2018-05-25T14:22:30.149Z,100.00
2018-05-25T14:24:57.635Z,100.00
2018-05-25T14:27:25.128Z,100.00
2018-05-25T14:29:52.638Z,100.00
2018-05-25T14:32:20.119Z,100.00
2018-05-25T14:34:47.587Z,100.00
2018-05-25T14:37:15.084Z,100.00
2018-05-25T14:39:42.566Z,100.00
2018-05-25T14:42:10.084Z,100.00
2018-05-25T14:44:37.552Z,100.00
2018-05-25T14:47:05.023Z,100.00
2018-05-25T14:49:32.516Z,100.00
2018-05-25T14:52:00.027Z,100.00
2018-05-25T14:54:27.492Z,100.00
2018-05-25T14:56:54.966Z,100.00
2018-05-25T14:59:22.483Z,100.00
2018-05-25T15:01:49.993Z,100.00
2018-05-25T15:04:17.464Z,100.00
2018-05-25T15:06:44.960Z,100.00
2018-05-25T15:09:12.798Z,100.00
2018-05-25T15:11:40.298Z,100.00
2018-05-25T15:14:07.767Z,100.00
2018-05-25T15:16:35.245Z,100.00
2018-05-25T15:19:02.726Z,100.00
2018-05-25T15:21:30.197Z,100.00
2018-05-25T15:23:57.849Z,100.00
2018-05-25T15:26:25.319Z,100.00
2018-05-25T15:28:52.788Z,100.00
2018-05-25T15:31:20.274Z,100.00
2018-05-25T15:33:47.760Z,100.00
2018-05-25T15:36:15.247Z,100.00
2018-05-25T15:38:42.715Z,100.00
2018-05-25T15:41:10.211Z,100.00
2018-05-25T15:43:37.694Z,100.00
2018-05-25T15:46:05.164Z,100.00
2018-05-25T15:48:33.037Z,100.00
2018-05-25T15:51:00.503Z,100.00
2018-05-25T15:53:27.976Z,100.00
2018-05-25T15:55:55.467Z,100.00
2018-05-25T15:58:22.933Z,100.00
2018-05-25T16:00:50.468Z,100.00
2018-05-25T16:03:17.951Z,100.00
2018-05-25T16:05:45.435Z,100.00
2018-05-25T16:08:12.918Z,100.00
2018-05-25T16:10:40.398Z,100.00
2018-05-25T16:13:07.872Z,100.00
2018-05-25T16:15:35.344Z,100.00
2018-05-25T16:18:02.834Z,100.00
2018-05-25T16:20:30.296Z,100.00
2018-05-25T16:22:57.777Z,100.00
2018-05-25T16:25:25.260Z,100.00
2018-05-25T16:27:52.744Z,100.00
2018-05-25T16:30:20.400Z,100.00
2018-05-25T16:32:47.876Z,100.00
2018-05-25T16:35:15.356Z,100.00
2018-05-25T16:37:42.841Z,100.00
2018-05-25T16:40:10.339Z,100.00
2018-05-25T16:42:37.827Z,100.00
2018-05-25T16:45:05.306Z,100.00
2018-05-25T16:47:32.775Z,100.00
2018-05-25T16:50:00.293Z,100.00
2018-05-25T16:52:27.751Z,100.00
2018-05-25T16:54:55.250Z,100.00
2018-05-25T16:57:22.723Z,100.00
2018-05-25T16:59:50.207Z,100.00
2018-05-25T17:02:17.693Z,100.00
2018-05-25T17:04:45.158Z,100.00
2018-05-25T17:07:12.653Z,100.00
2018-05-25T17:09:40.120Z,100.00
2018-05-25T17:12:07.601Z,100.00
2018-05-25T17:14:35.064Z,100.00
2018-05-25T17:17:02.573Z,100.00
2018-05-25T17:19:30.051Z,100.00
2018-05-25T17:21:57.544Z,100.00
2018-05-25T17:24:25.067Z,100.00
2018-05-25T17:26:52.541Z,100.00
2018-05-25T17:29:20.028Z,100.00
2018-05-25T17:31:47.503Z,100.00
2018-05-25T17:34:14.983Z,100.00
2018-05-25T17:36:42.478Z,100.00
2018-05-25T17:39:09.948Z,100.00
2018-05-25T17:41:37.428Z,100.00
2018-05-25T17:44:04.900Z,100.00
2018-05-25T17:46:32.388Z,100.00
2018-05-25T17:48:59.868Z,96.53
2018-05-25T17:51:27.334Z,96.26
2018-05-25T17:53:54.832Z,95.95
2018-05-25T17:56:22.292Z,92.61
2018-05-25T17:58:50.125Z,88.54
2018-05-25T18:01:17.609Z,90.69
2018-05-25T18:03:45.074Z,93.85
2018-05-25T18:06:12.588Z,92.69
2018-05-25T18:08:40.045Z,100.00
2018-05-25T18:11:07.512Z,99.31
2018-05-25T18:13:35.006Z,99.11
2018-05-25T18:16:02.474Z,100.00
2018-05-25T18:18:29.968Z,100.00
2018-05-25T18:20:57.547Z,100.00
2018-05-25T18:23:25.052Z,100.00
2018-05-25T18:25:53.664Z,100.00
2018-05-25T18:28:21.135Z,100.00
2018-05-25T18:30:48.646Z,100.00
2018-05-25T18:33:16.116Z,100.00
2018-05-25T18:35:43.617Z,100.00
2018-05-25T18:38:11.089Z,100.00
2018-05-25T18:40:38.559Z,100.00
2018-05-25T18:43:06.050Z,100.00
2018-05-25T18:45:33.522Z,100.00
2018-05-25T18:48:01.009Z,100.00
2018-05-25T18:50:28.490Z,100.00
2018-05-25T18:52:56.926Z,100.00
2018-05-25T18:55:24.408Z,100.00
2018-05-25T18:57:51.869Z,100.00
2018-05-25T19:00:19.358Z,100.00
2018-05-25T19:02:46.839Z,100.00
2018-05-25T19:05:14.312Z,100.00
2018-05-25T19:07:41.812Z,100.00
2018-05-25T19:10:09.399Z,100.00
2018-05-25T19:12:36.904Z,100.00
2018-05-25T19:15:04.388Z,100.00
2018-05-25T19:17:31.856Z,100.00
2018-05-25T19:19:59.356Z,100.00
2018-05-25T19:22:26.844Z,100.00
2018-05-25T19:24:54.329Z,100.00
2018-05-25T19:27:21.798Z,100.00
2018-05-25T19:29:49.282Z,100.00
2018-05-25T19:32:16.751Z,100.00
2018-05-25T19:34:44.228Z,100.00
2018-05-25T19:37:11.712Z,100.00
2018-05-25T19:39:39.179Z,100.00
2018-05-25T19:42:06.658Z,100.00
2018-05-25T19:44:34.127Z,100.00
2018-05-25T19:47:04.511Z,100.00
2018-05-25T19:49:31.980Z,100.00
2018-05-25T19:51:59.455Z,100.00
2018-05-25T19:54:26.958Z,100.00
2018-05-25T19:56:54.453Z,100.00
2018-05-25T19:59:22.034Z,100.00
2018-05-25T20:01:49.515Z,100.00
2018-05-25T20:04:16.988Z,100.00
2018-05-25T20:06:44.476Z,100.00
2018-05-25T20:09:11.958Z,100.00
2018-05-25T20:11:39.461Z,100.00
2018-05-25T20:14:07.515Z,100.00
2018-05-25T20:16:34.983Z,100.00
2018-05-25T20:19:02.473Z,100.00
2018-05-25T20:21:29.948Z,100.00
2018-05-25T20:23:57.464Z,100.00
2018-05-25T20:26:25.344Z,100.00
2018-05-25T20:28:52.811Z,100.00
2018-05-25T20:31:20.295Z,100.00
2018-05-25T20:33:47.775Z,100.00
2018-05-25T20:36:15.263Z,100.00
2018-05-25T20:38:42.752Z,100.00
2018-05-25T20:41:10.228Z,100.00
2018-05-25T20:43:37.712Z,100.00
2018-05-25T20:46:05.200Z,100.00
2018-05-25T20:48:32.689Z,100.00
2018-05-25T20:51:00.159Z,100.00
2018-05-25T20:53:27.643Z,100.00
2018-05-25T20:55:55.138Z,100.00
2018-05-25T20:58:22.619Z,100.00
2018-05-25T21:00:50.129Z,100.00
2018-05-25T21:03:17.600Z,100.00
2018-05-25T21:05:45.077Z,100.00
2018-05-25T21:08:12.566Z,100.00
2018-05-25T21:10:40.037Z,100.00
2018-05-25T21:13:07.532Z,100.00
2018-05-25T21:15:35.014Z,100.00
2018-05-25T21:18:02.522Z,100.00
2018-05-25T21:20:29.992Z,100.00
2018-05-25T21:22:57.468Z,100.00
2018-05-25T21:25:24.976Z,100.00
2018-05-25T21:27:52.449Z,100.00
2018-05-25T21:30:19.955Z,100.00
2018-05-25T21:32:47.442Z,100.00
2018-05-25T21:35:14.926Z,100.00
2018-05-25T21:37:42.406Z,100.00
2018-05-25T21:40:09.879Z,100.00
2018-05-25T21:42:37.398Z,100.00
2018-05-25T21:45:04.867Z,100.00
2018-05-25T21:47:32.346Z,100.00
2018-05-25T21:49:59.831Z,100.00
2018-05-25T21:52:27.304Z,100.00
2018-05-25T21:54:54.796Z,100.00
2018-05-25T21:57:22.291Z,100.00
2018-05-25T21:59:49.797Z,100.00
2018-05-25T22:02:17.265Z,100.00
2018-05-25T22:04:44.759Z,100.00
2018-05-25T22:07:12.240Z,100.00
2018-05-25T22:09:39.718Z,100.00
2018-05-25T22:12:07.206Z,100.00
2018-05-25T22:14:34.684Z,100.00
2018-05-25T22:17:02.187Z,100.00
2018-05-25T22:19:29.668Z,100.00
2018-05-25T22:21:57.156Z,100.00
2018-05-25T22:24:24.647Z,100.00
2018-05-25T22:26:52.129Z,100.00
2018-05-25T22:29:19.631Z,100.00
2018-05-25T22:31:47.116Z,100.00
2018-05-25T22:34:14.595Z,100.00
2018-05-25T22:36:42.087Z,100.00
2018-05-25T22:39:09.553Z,100.00
2018-05-25T22:41:37.068Z,100.00
2018-05-25T22:44:16.148Z,100.00
2018-05-25T22:46:55.492Z,100.00
2018-05-25T22:49:34.792Z,100.00
2018-05-25T22:52:14.023Z,100.00
2018-05-25T22:54:42.300Z,100.00
2018-05-25T22:57:09.805Z,100.00
2018-05-25T22:59:37.299Z,100.00
2018-05-25T23:02:05.648Z,100.00
2018-05-25T23:04:33.138Z,100.00
2018-05-25T23:07:00.616Z,100.00
2018-05-25T23:09:28.588Z,100.00
2018-05-25T23:11:56.072Z,100.00
2018-05-25T23:14:23.561Z,100.00
2018-05-25T23:16:51.036Z,100.00
2018-05-25T23:19:18.511Z,100.00
2018-05-25T23:21:46.008Z,100.00
2018-05-25T23:24:13.490Z,100.00
2018-05-25T23:26:41.159Z,100.00
2018-05-25T23:29:08.637Z,100.00
2018-05-25T23:31:36.117Z,100.00
2018-05-25T23:34:03.611Z,100.00
2018-05-25T23:36:31.085Z,100.00
2018-05-25T23:38:58.580Z,100.00
2018-05-25T23:41:26.064Z,100.00
2018-05-25T23:43:53.544Z,100.00
2018-05-25T23:46:21.048Z,100.00
2018-05-25T23:48:48.568Z,100.00
2018-05-25T23:51:16.042Z,100.00
2018-05-25T23:53:43.524Z,100.00
2018-05-25T23:56:11.014Z,100.00
2018-05-25T23:58:38.512Z,100.00
